Pirauba, Brazil
Current Conditions -  °F | °C
As of 6:00 PM on Thursday 27 Nov 2014 (Local Time) from SBBQ Reporting Station
Thunderstorm Thunderstorm  
Wind Chill: 70°   Ceiling: 1200
Heat Index: 70°   Visibility: 3mi
Dew Point: 66°   Wind: 3mph
Humidity: 88%   Direction: 20°NNE
Pressure: 30"   Gusts: NA
Location:  21.28°S, 43.03°W
Report Text: SBBQ 272000Z 02003KT 5000 -TSRA BKN012 BKN020 FEW025CB 21/19 Q1016
Loading
Personal Weather Stations






























Interactive Weather Map New forecast layout! Learn more

10-Day Weather Forecast

Advertisements
Track Severe Weather on mobile